sensor_id;sensor_type;location;lat;lon;timestamp;pressure;altitude;pressure_sealevel;temperature;humidity
62038;BME280;47991;42.974;12.082;2023-06-14T00:02:14;97224.08;;;16.70;100.00
62038;BME280;47991;42.974;12.082;2023-06-14T00:04:42;97223.92;;;16.69;100.00
62038;BME280;47991;42.974;12.082;2023-06-14T00:07:09;97221.89;;;16.76;100.00
62038;BME280;47991;42.974;12.082;2023-06-14T00:09:36;97217.93;;;16.82;100.00
62038;BME280;47991;42.974;12.082;2023-06-14T00:12:03;97216.45;;;16.89;100.00
62038;BME280;47991;42.974;12.082;2023-06-14T00:14:29;97219.93;;;16.94;100.00
62038;BME280;47991;42.974;12.082;2023-06-14T00:16:56;97222.75;;;16.97;100.00
62038;BME280;47991;42.974;12.082;2023-06-14T00:19:40;97223.38;;;17.02;100.00
62038;BME280;47991;42.974;12.082;2023-06-14T00:22:06;97218.20;;;17.05;100.00
62038;BME280;47991;42.974;12.082;2023-06-14T00:24:33;97212.55;;;17.09;100.00
62038;BME280;47991;42.974;12.082;2023-06-14T00:27:00;97211.68;;;17.09;100.00
62038;BME280;47991;42.974;12.082;2023-06-14T00:29:27;97205.51;;;17.07;100.00
62038;BME280;47991;42.974;12.082;2023-06-14T00:31:53;97209.80;;;17.08;100.00
62038;BME280;47991;42.974;12.082;2023-06-14T00:34:20;97210.02;;;17.07;100.00
62038;BME280;47991;42.974;12.082;2023-06-14T00:36:46;97211.33;;;16.95;100.00
62038;BME280;47991;42.974;12.082;2023-06-14T00:39:13;97212.13;;;16.84;100.00
62038;BME280;47991;42.974;12.082;2023-06-14T00:41:40;97208.67;;;16.89;100.00
62038;BME280;47991;42.974;12.082;2023-06-14T00:44:06;97206.52;;;16.91;100.00
62038;BME280;47991;42.974;12.082;2023-06-14T00:46:33;97211.89;;;16.94;100.00
62038;BME280;47991;42.974;12.082;2023-06-14T00:49:00;97209.42;;;16.96;100.00
62038;BME280;47991;42.974;12.082;2023-06-14T00:51:27;97210.70;;;16.98;100.00
62038;BME280;47991;42.974;12.082;2023-06-14T00:53:54;97205.69;;;16.99;100.00
62038;BME280;47991;42.974;12.082;2023-06-14T00:56:21;97204.41;;;17.02;100.00
62038;BME280;47991;42.974;12.082;2023-06-14T00:58:50;97205.48;;;17.05;100.00
62038;BME280;47991;42.974;12.082;2023-06-14T01:01:17;97209.42;;;17.08;100.00
62038;BME280;47991;42.974;12.082;2023-06-14T01:03:44;97212.27;;;17.08;100.00
62038;BME280;47991;42.974;12.082;2023-06-14T01:08:45;97205.80;;;17.06;100.00
62038;BME280;47991;42.974;12.082;2023-06-14T01:11:18;97208.27;;;16.95;100.00
62038;BME280;47991;42.974;12.082;2023-06-14T01:13:48;97208.18;;;16.91;100.00
62038;BME280;47991;42.974;12.082;2023-06-14T01:16:16;97201.62;;;16.93;100.00
62038;BME280;47991;42.974;12.082;2023-06-14T01:18:43;97204.86;;;16.98;100.00
62038;BME280;47991;42.974;12.082;2023-06-14T01:21:21;97202.89;;;17.00;100.00
62038;BME280;47991;42.974;12.082;2023-06-14T01:23:48;97203.94;;;16.98;100.00
62038;BME280;47991;42.974;12.082;2023-06-14T01:26:19;97198.84;;;17.00;100.00
62038;BME280;47991;42.974;12.082;2023-06-14T01:28:46;97192.92;;;17.04;100.00
62038;BME280;47991;42.974;12.082;2023-06-14T01:31:18;97193.52;;;17.05;100.00
62038;BME280;47991;42.974;12.082;2023-06-14T01:33:46;97188.88;;;17.08;100.00
62038;BME280;47991;42.974;12.082;2023-06-14T01:36:12;97189.05;;;17.11;100.00
62038;BME280;47991;42.974;12.082;2023-06-14T01:38:40;97187.86;;;17.15;100.00
62038;BME280;47991;42.974;12.082;2023-06-14T01:41:08;97188.86;;;17.16;100.00
62038;BME280;47991;42.974;12.082;2023-06-14T01:43:36;97185.72;;;17.21;100.00
62038;BME280;47991;42.974;12.082;2023-06-14T01:46:03;97186.17;;;17.22;100.00
62038;BME280;47991;42.974;12.082;2023-06-14T01:48:32;97186.20;;;17.22;100.00
62038;BME280;47991;42.974;12.082;2023-06-14T01:50:59;97185.48;;;17.25;100.00
62038;BME280;47991;42.974;12.082;2023-06-14T01:53:25;97181.14;;;17.23;99.99
62038;BME280;47991;42.974;12.082;2023-06-14T01:55:52;97180.42;;;17.23;100.00
62038;BME280;47991;42.974;12.082;2023-06-14T01:58:20;97178.76;;;17.18;100.00
62038;BME280;47991;42.974;12.082;2023-06-14T02:00:47;97180.83;;;17.17;100.00
62038;BME280;47991;42.974;12.082;2023-06-14T02:03:15;97178.36;;;17.16;100.00
62038;BME280;47991;42.974;12.082;2023-06-14T02:05:41;97173.58;;;17.04;100.00
62038;BME280;47991;42.974;12.082;2023-06-14T02:08:08;97170.14;;;16.96;100.00
62038;BME280;47991;42.974;12.082;2023-06-14T02:10:35;97161.55;;;16.99;100.00
62038;BME280;47991;42.974;12.082;2023-06-14T02:13:01;97155.73;;;17.04;100.00
62038;BME280;47991;42.974;12.082;2023-06-14T02:15:28;97154.17;;;17.06;100.00
62038;BME280;47991;42.974;12.082;2023-06-14T02:18:03;97157.66;;;17.08;100.00
62038;BME280;47991;42.974;12.082;2023-06-14T02:20:30;97161.86;;;17.08;100.00
62038;BME280;47991;42.974;12.082;2023-06-14T02:22:57;97158.39;;;17.12;100.00
62038;BME280;47991;42.974;12.082;2023-06-14T02:25:24;97153.15;;;17.13;100.00
62038;BME280;47991;42.974;12.082;2023-06-14T02:27:51;97154.57;;;17.19;100.00
62038;BME280;47991;42.974;12.082;2023-06-14T02:30:18;97148.53;;;17.21;100.00
62038;BME280;47991;42.974;12.082;2023-06-14T02:32:44;97147.26;;;17.25;100.00
62038;BME280;47991;42.974;12.082;2023-06-14T02:35:11;97144.42;;;17.22;100.00
62038;BME280;47991;42.974;12.082;2023-06-14T02:37:40;97137.75;;;17.06;100.00
62038;BME280;47991;42.974;12.082;2023-06-14T02:40:07;97131.05;;;16.99;100.00
62038;BME280;47991;42.974;12.082;2023-06-14T02:42:35;97128.37;;;16.90;100.00
62038;BME280;47991;42.974;12.082;2023-06-14T02:45:02;97128.05;;;16.90;100.00
62038;BME280;47991;42.974;12.082;2023-06-14T02:47:30;97126.50;;;16.95;100.00
62038;BME280;47991;42.974;12.082;2023-06-14T02:49:57;97127.46;;;16.99;100.00
62038;BME280;47991;42.974;12.082;2023-06-14T02:52:23;97124.55;;;17.03;100.00
62038;BME280;47991;42.974;12.082;2023-06-14T02:54:51;97125.27;;;17.00;100.00
62038;BME280;47991;42.974;12.082;2023-06-14T02:57:18;97124.08;;;16.99;100.00
62038;BME280;47991;42.974;12.082;2023-06-14T02:59:45;97120.90;;;17.01;100.00
62038;BME280;47991;42.974;12.082;2023-06-14T03:02:11;97127.55;;;16.98;100.00
62038;BME280;47991;42.974;12.082;2023-06-14T03:04:40;97124.12;;;16.95;100.00
62038;BME280;47991;42.974;12.082;2023-06-14T03:07:07;97127.17;;;16.98;100.00
62038;BME280;47991;42.974;12.082;2023-06-14T03:09:37;97123.88;;;17.02;100.00
62038;BME280;47991;42.974;12.082;2023-06-14T03:12:04;97130.67;;;17.05;100.00
62038;BME280;47991;42.974;12.082;2023-06-14T03:14:33;97134.40;;;17.05;100.00
62038;BME280;47991;42.974;12.082;2023-06-14T03:17:01;97132.77;;;17.06;100.00
62038;BME280;47991;42.974;12.082;2023-06-14T03:19:28;97134.91;;;17.06;100.00
62038;BME280;47991;42.974;12.082;2023-06-14T03:21:55;97136.30;;;17.03;100.00
62038;BME280;47991;42.974;12.082;2023-06-14T03:24:24;97140.17;;;16.96;100.00
62038;BME280;47991;42.974;12.082;2023-06-14T03:26:53;97139.46;;;16.91;100.00
62038;BME280;47991;42.974;12.082;2023-06-14T03:29:20;97141.98;;;16.90;100.00
62038;BME280;47991;42.974;12.082;2023-06-14T03:31:57;97140.08;;;16.94;100.00
62038;BME280;47991;42.974;12.082;2023-06-14T03:34:24;97146.46;;;16.98;100.00
62038;BME280;47991;42.974;12.082;2023-06-14T03:36:51;97148.08;;;17.04;100.00
62038;BME280;47991;42.974;12.082;2023-06-14T03:39:18;97150.20;;;17.07;100.00
62038;BME280;47991;42.974;12.082;2023-06-14T03:41:46;97151.66;;;17.09;100.00
62038;BME280;47991;42.974;12.082;2023-06-14T03:44:16;97145.55;;;17.12;100.00
62038;BME280;47991;42.974;12.082;2023-06-14T03:46:45;97146.34;;;17.14;100.00
62038;BME280;47991;42.974;12.082;2023-06-14T03:49:12;97149.73;;;17.11;100.00
62038;BME280;47991;42.974;12.082;2023-06-14T03:51:38;97158.02;;;17.10;100.00
62038;BME280;47991;42.974;12.082;2023-06-14T03:54:08;97157.54;;;17.15;100.00
62038;BME280;47991;42.974;12.082;2023-06-14T03:56:35;97159.90;;;17.17;100.00
62038;BME280;47991;42.974;12.082;2023-06-14T03:59:02;97169.48;;;17.21;100.00
62038;BME280;47991;42.974;12.082;2023-06-14T04:01:29;97176.69;;;17.19;100.00
62038;BME280;47991;42.974;12.082;2023-06-14T04:03:56;97181.00;;;17.22;100.00
62038;BME280;47991;42.974;12.082;2023-06-14T04:06:24;97183.96;;;17.23;100.00
62038;BME280;47991;42.974;12.082;2023-06-14T04:08:58;97184.23;;;17.25;100.00
62038;BME280;47991;42.974;12.082;2023-06-14T04:11:30;97181.95;;;17.24;100.00
62038;BME280;47991;42.974;12.082;2023-06-14T04:13:57;97183.20;;;17.21;100.00
62038;BME280;47991;42.974;12.082;2023-06-14T04:16:24;97180.77;;;17.17;100.00
62038;BME280;47991;42.974;12.082;2023-06-14T04:18:51;97175.25;;;17.14;100.00
62038;BME280;47991;42.974;12.082;2023-06-14T04:21:18;97172.66;;;17.07;100.00
62038;BME280;47991;42.974;12.082;2023-06-14T04:23:45;97174.79;;;17.07;100.00
62038;BME280;47991;42.974;12.082;2023-06-14T04:26:12;97176.74;;;17.02;100.00
62038;BME280;47991;42.974;12.082;2023-06-14T04:28:39;97182.21;;;17.00;100.00
62038;BME280;47991;42.974;12.082;2023-06-14T04:31:07;97177.52;;;16.98;100.00
62038;BME280;47991;42.974;12.082;2023-06-14T04:33:37;97178.55;;;16.96;100.00
62038;BME280;47991;42.974;12.082;2023-06-14T04:36:10;97181.95;;;16.96;100.00
62038;BME280;47991;42.974;12.082;2023-06-14T04:38:40;97183.88;;;16.99;100.00
62038;BME280;47991;42.974;12.082;2023-06-14T04:41:07;97183.52;;;17.02;100.00
62038;BME280;47991;42.974;12.082;2023-06-14T04:43:38;97188.21;;;17.07;100.00
62038;BME280;47991;42.974;12.082;2023-06-14T04:46:05;97189.92;;;17.14;100.00
62038;BME280;47991;42.974;12.082;2023-06-14T04:48:32;97187.09;;;17.19;100.00
62038;BME280;47991;42.974;12.082;2023-06-14T04:50:59;97186.11;;;17.26;100.00
62038;BME280;47991;42.974;12.082;2023-06-14T04:53:25;97189.17;;;17.29;100.00
62038;BME280;47991;42.974;12.082;2023-06-14T04:55:55;97194.64;;;17.30;100.00
62038;BME280;47991;42.974;12.082;2023-06-14T04:58:22;97193.36;;;17.27;100.00
62038;BME280;47991;42.974;12.082;2023-06-14T05:00:49;97197.65;;;17.27;100.00
62038;BME280;47991;42.974;12.082;2023-06-14T05:03:15;97194.71;;;17.20;100.00
62038;BME280;47991;42.974;12.082;2023-06-14T05:09:02;97193.81;;;17.14;100.00
62038;BME280;47991;42.974;12.082;2023-06-14T05:11:29;97190.84;;;17.05;100.00
62038;BME280;47991;42.974;12.082;2023-06-14T05:13:55;97189.83;;;16.96;100.00
62038;BME280;47991;42.974;12.082;2023-06-14T05:16:25;97191.79;;;16.90;100.00
62038;BME280;47991;42.974;12.082;2023-06-14T05:18:53;97186.98;;;16.87;100.00
62038;BME280;47991;42.974;12.082;2023-06-14T05:21:20;97177.34;;;16.84;100.00
62038;BME280;47991;42.974;12.082;2023-06-14T05:23:47;97174.46;;;16.88;100.00
62038;BME280;47991;42.974;12.082;2023-06-14T05:26:14;97176.14;;;16.97;100.00
62038;BME280;47991;42.974;12.082;2023-06-14T05:28:41;97178.58;;;17.07;100.00
62038;BME280;47991;42.974;12.082;2023-06-14T05:31:08;97180.58;;;17.14;100.00
62038;BME280;47991;42.974;12.082;2023-06-14T05:33:34;97182.15;;;17.27;100.00
62038;BME280;47991;42.974;12.082;2023-06-14T05:36:01;97177.27;;;17.41;100.00
62038;BME280;47991;42.974;12.082;2023-06-14T05:38:28;97170.05;;;17.56;100.00
62038;BME280;47991;42.974;12.082;2023-06-14T05:40:55;97166.29;;;17.67;100.00
62038;BME280;47991;42.974;12.082;2023-06-14T05:43:22;97170.39;;;17.59;100.00
62038;BME280;47991;42.974;12.082;2023-06-14T05:45:48;97169.28;;;17.54;100.00
62038;BME280;47991;42.974;12.082;2023-06-14T05:48:15;97165.85;;;17.57;100.00
62038;BME280;47991;42.974;12.082;2023-06-14T05:50:41;97165.23;;;17.53;100.00
62038;BME280;47991;42.974;12.082;2023-06-14T05:53:08;97162.80;;;17.41;100.00
62038;BME280;47991;42.974;12.082;2023-06-14T05:55:35;97160.91;;;17.40;100.00
62038;BME280;47991;42.974;12.082;2023-06-14T05:58:02;97164.08;;;17.35;100.00
62038;BME280;47991;42.974;12.082;2023-06-14T06:00:29;97158.70;;;17.25;100.00
62038;BME280;47991;42.974;12.082;2023-06-14T06:02:56;97157.36;;;17.34;100.00
62038;BME280;47991;42.974;12.082;2023-06-14T06:05:24;97155.98;;;17.52;100.00
62038;BME280;47991;42.974;12.082;2023-06-14T06:07:51;97157.05;;;17.79;100.00
62038;BME280;47991;42.974;12.082;2023-06-14T06:10:18;97160.45;;;18.22;100.00
62038;BME280;47991;42.974;12.082;2023-06-14T06:12:44;97163.63;;;18.43;99.99
62038;BME280;47991;42.974;12.082;2023-06-14T06:15:11;97168.52;;;18.63;97.79
62038;BME280;47991;42.974;12.082;2023-06-14T06:17:38;97169.28;;;18.75;98.60
62038;BME280;47991;42.974;12.082;2023-06-14T06:20:06;97174.44;;;18.83;97.25
62038;BME280;47991;42.974;12.082;2023-06-14T06:22:34;97175.63;;;18.87;96.57
62038;BME280;47991;42.974;12.082;2023-06-14T06:25:01;97182.63;;;18.84;96.27
62038;BME280;47991;42.974;12.082;2023-06-14T06:27:29;97185.77;;;18.83;96.59
62038;BME280;47991;42.974;12.082;2023-06-14T06:29:56;97189.67;;;18.83;96.82
62038;BME280;47991;42.974;12.082;2023-06-14T06:32:22;97191.15;;;18.90;97.06
62038;BME280;47991;42.974;12.082;2023-06-14T06:34:49;97187.52;;;18.91;96.64
62038;BME280;47991;42.974;12.082;2023-06-14T06:37:16;97190.95;;;18.98;97.43
62038;BME280;47991;42.974;12.082;2023-06-14T06:39:43;97197.27;;;19.05;97.01
62038;BME280;47991;42.974;12.082;2023-06-14T06:42:11;97199.33;;;19.09;96.57
62038;BME280;47991;42.974;12.082;2023-06-14T06:44:38;97202.06;;;19.11;95.39
62038;BME280;47991;42.974;12.082;2023-06-14T06:47:05;97196.33;;;19.00;94.21
62038;BME280;47991;42.974;12.082;2023-06-14T06:49:32;97197.16;;;18.94;95.48
62038;BME280;47991;42.974;12.082;2023-06-14T06:52:03;97193.72;;;18.97;96.77
62038;BME280;47991;42.974;12.082;2023-06-14T06:54:30;97194.91;;;19.08;96.89
62038;BME280;47991;42.974;12.082;2023-06-14T06:56:58;97202.98;;;19.20;96.10
62038;BME280;47991;42.974;12.082;2023-06-14T06:59:24;97205.79;;;19.26;95.42
62038;BME280;47991;42.974;12.082;2023-06-14T07:01:51;97206.44;;;19.24;92.18
62038;BME280;47991;42.974;12.082;2023-06-14T07:04:20;97207.69;;;19.15;91.32
62038;BME280;47991;42.974;12.082;2023-06-14T07:06:56;97206.79;;;19.15;93.69
62038;BME280;47991;42.974;12.082;2023-06-14T07:09:22;97208.55;;;19.22;94.76
62038;BME280;47991;42.974;12.082;2023-06-14T07:11:50;97206.08;;;19.35;95.43
62038;BME280;47991;42.974;12.082;2023-06-14T07:14:17;97211.44;;;19.47;93.16
62038;BME280;47991;42.974;12.082;2023-06-14T07:16:44;97217.61;;;19.56;92.63
62038;BME280;47991;42.974;12.082;2023-06-14T07:19:10;97217.50;;;19.52;92.21
62038;BME280;47991;42.974;12.082;2023-06-14T07:21:37;97213.88;;;19.57;92.98
62038;BME280;47991;42.974;12.082;2023-06-14T07:24:07;97210.88;;;19.69;93.81
62038;BME280;47991;42.974;12.082;2023-06-14T07:26:34;97211.91;;;19.79;92.52
62038;BME280;47991;42.974;12.082;2023-06-14T07:29:02;97209.60;;;19.77;90.49
62038;BME280;47991;42.974;12.082;2023-06-14T07:31:28;97208.67;;;19.72;90.20
62038;BME280;47991;42.974;12.082;2023-06-14T07:33:55;97208.12;;;19.83;90.86
62038;BME280;47991;42.974;12.082;2023-06-14T07:36:22;97207.63;;;19.82;89.49
62038;BME280;47991;42.974;12.082;2023-06-14T07:38:49;97209.35;;;19.90;90.55
62038;BME280;47991;42.974;12.082;2023-06-14T07:41:16;97209.88;;;19.97;90.47
62038;BME280;47991;42.974;12.082;2023-06-14T07:43:43;97213.95;;;20.08;91.06
62038;BME280;47991;42.974;12.082;2023-06-14T07:46:09;97209.15;;;20.19;90.76
62038;BME280;47991;42.974;12.082;2023-06-14T07:48:36;97209.77;;;20.30;88.45
62038;BME280;47991;42.974;12.082;2023-06-14T07:51:03;97211.21;;;20.27;88.37
62038;BME280;47991;42.974;12.082;2023-06-14T07:53:30;97211.66;;;20.10;85.06
62038;BME280;47991;42.974;12.082;2023-06-14T07:55:57;97209.64;;;20.15;86.56
62038;BME280;47991;42.974;12.082;2023-06-14T07:58:24;97211.15;;;20.26;87.22
62038;BME280;47991;42.974;12.082;2023-06-14T08:00:50;97214.92;;;20.42;88.02
62038;BME280;47991;42.974;12.082;2023-06-14T08:03:17;97213.25;;;20.59;88.50
62038;BME280;47991;42.974;12.082;2023-06-14T08:05:44;97214.80;;;20.65;86.91
62038;BME280;47991;42.974;12.082;2023-06-14T08:08:11;97214.61;;;20.67;87.93
62038;BME280;47991;42.974;12.082;2023-06-14T08:10:39;97212.52;;;20.64;85.24
62038;BME280;47991;42.974;12.082;2023-06-14T08:13:05;97215.66;;;20.40;81.93
62038;BME280;47991;42.974;12.082;2023-06-14T08:15:32;97209.50;;;20.14;80.41
62038;BME280;47991;42.974;12.082;2023-06-14T08:18:00;97211.83;;;20.10;83.74
62038;BME280;47991;42.974;12.082;2023-06-14T08:20:27;97216.23;;;20.11;82.09
62038;BME280;47991;42.974;12.082;2023-06-14T08:22:54;97215.13;;;20.11;83.49
62038;BME280;47991;42.974;12.082;2023-06-14T08:25:23;97217.12;;;20.23;85.75
62038;BME280;47991;42.974;12.082;2023-06-14T08:27:49;97219.32;;;20.41;85.88
62038;BME280;47991;42.974;12.082;2023-06-14T08:30:16;97213.98;;;20.59;82.30
62038;BME280;47991;42.974;12.082;2023-06-14T08:32:43;97203.46;;;20.99;79.84
62038;BME280;47991;42.974;12.082;2023-06-14T08:35:10;97202.71;;;21.56;79.48
62038;BME280;47991;42.974;12.082;2023-06-14T08:37:39;97205.64;;;22.03;77.90
62038;BME280;47991;42.974;12.082;2023-06-14T08:40:29;97202.09;;;22.37;75.95
62038;BME280;47991;42.974;12.082;2023-06-14T08:42:54;97199.65;;;22.60;71.81
62038;BME280;47991;42.974;12.082;2023-06-14T08:45:21;97202.46;;;22.63;73.08
62038;BME280;47991;42.974;12.082;2023-06-14T08:47:48;97196.30;;;22.65;69.35
62038;BME280;47991;42.974;12.082;2023-06-14T08:50:21;97196.56;;;22.74;67.62
62038;BME280;47991;42.974;12.082;2023-06-14T08:52:57;97191.51;;;22.74;68.39
62038;BME280;47991;42.974;12.082;2023-06-14T08:55:26;97186.53;;;22.74;68.11
62038;BME280;47991;42.974;12.082;2023-06-14T08:57:54;97187.39;;;22.64;70.44
62038;BME280;47991;42.974;12.082;2023-06-14T09:00:22;97184.27;;;22.87;71.02
62038;BME280;47991;42.974;12.082;2023-06-14T09:02:49;97176.36;;;23.01;70.12
62038;BME280;47991;42.974;12.082;2023-06-14T09:05:24;97175.73;;;23.09;69.98
62038;BME280;47991;42.974;12.082;2023-06-14T09:07:52;97179.27;;;23.12;70.17
62038;BME280;47991;42.974;12.082;2023-06-14T09:10:19;97184.08;;;22.75;69.80
62038;BME280;47991;42.974;12.082;2023-06-14T09:12:46;97185.28;;;23.03;70.36
62038;BME280;47991;42.974;12.082;2023-06-14T09:15:13;97187.36;;;22.72;69.53
62038;BME280;47991;42.974;12.082;2023-06-14T09:17:41;97185.55;;;22.99;71.85
62038;BME280;47991;42.974;12.082;2023-06-14T09:20:08;97182.68;;;23.32;70.47
62038;BME280;47991;42.974;12.082;2023-06-14T09:22:45;97185.91;;;23.38;68.89
62038;BME280;47991;42.974;12.082;2023-06-14T09:25:12;97188.16;;;23.57;69.87
62038;BME280;47991;42.974;12.082;2023-06-14T09:27:41;97189.05;;;23.66;69.83
62038;BME280;47991;42.974;12.082;2023-06-14T09:30:09;97184.19;;;23.99;68.47
62038;BME280;47991;42.974;12.082;2023-06-14T09:32:36;97178.70;;;24.08;66.34
62038;BME280;47991;42.974;12.082;2023-06-14T09:35:04;97174.17;;;23.80;67.96
62038;BME280;47991;42.974;12.082;2023-06-14T09:37:31;97172.38;;;23.58;66.62
62038;BME280;47991;42.974;12.082;2023-06-14T09:39:58;97163.94;;;23.40;66.85
62038;BME280;47991;42.974;12.082;2023-06-14T09:42:25;97153.70;;;23.27;68.95
62038;BME280;47991;42.974;12.082;2023-06-14T09:44:52;97151.83;;;23.18;69.83
62038;BME280;47991;42.974;12.082;2023-06-14T09:47:23;97147.86;;;23.10;69.93
62038;BME280;47991;42.974;12.082;2023-06-14T09:49:50;97148.17;;;23.16;69.29
62038;BME280;47991;42.974;12.082;2023-06-14T09:52:18;97155.98;;;23.34;68.68
62038;BME280;47991;42.974;12.082;2023-06-14T09:54:45;97155.52;;;23.41;68.00
62038;BME280;47991;42.974;12.082;2023-06-14T09:57:22;97146.79;;;23.30;69.35
62038;BME280;47991;42.974;12.082;2023-06-14T09:59:52;97141.50;;;23.39;69.30
62038;BME280;47991;42.974;12.082;2023-06-14T10:02:26;97140.67;;;23.48;70.31
62038;BME280;47991;42.974;12.082;2023-06-14T10:05:03;97141.64;;;23.43;70.21
62038;BME280;47991;42.974;12.082;2023-06-14T10:07:34;97149.04;;;23.43;71.19
62038;BME280;47991;42.974;12.082;2023-06-14T10:10:02;97151.46;;;23.34;71.68
62038;BME280;47991;42.974;12.082;2023-06-14T10:12:29;97151.60;;;23.21;70.91
62038;BME280;47991;42.974;12.082;2023-06-14T10:22:52;97155.29;;;22.64;74.51
62038;BME280;47991;42.974;12.082;2023-06-14T10:25:28;97159.67;;;22.47;74.56
62038;BME280;47991;42.974;12.082;2023-06-14T10:30:39;97178.19;;;22.32;74.98
62038;BME280;47991;42.974;12.082;2023-06-14T10:33:07;97186.25;;;22.18;74.85
62038;BME280;47991;42.974;12.082;2023-06-14T11:01:37;97242.80;;;17.81;82.26
62038;BME280;47991;42.974;12.082;2023-06-14T11:04:09;97254.21;;;17.48;83.36
62038;BME280;47991;42.974;12.082;2023-06-14T11:06:46;97275.08;;;16.79;87.18
62038;BME280;47991;42.974;12.082;2023-06-14T11:12:01;97292.71;;;16.26;89.88
62038;BME280;47991;42.974;12.082;2023-06-14T11:14:31;97288.66;;;16.34;88.67
62038;BME280;47991;42.974;12.082;2023-06-14T11:16:57;97279.86;;;16.48;87.63
62038;BME280;47991;42.974;12.082;2023-06-14T11:19:23;97271.02;;;16.58;87.84
62038;BME280;47991;42.974;12.082;2023-06-14T11:21:50;97263.79;;;16.56;89.08
62038;BME280;47991;42.974;12.082;2023-06-14T11:24:17;97250.56;;;16.57;89.27
62038;BME280;47991;42.974;12.082;2023-06-14T11:26:43;97237.55;;;16.65;89.08
62038;BME280;47991;42.974;12.082;2023-06-14T11:29:09;97234.80;;;16.75;88.87
62038;BME280;47991;42.974;12.082;2023-06-14T11:31:36;97231.75;;;16.90;88.65
62038;BME280;47991;42.974;12.082;2023-06-14T11:34:02;97231.83;;;17.01;88.45
62038;BME280;47991;42.974;12.082;2023-06-14T11:36:30;97229.98;;;17.13;88.98
62038;BME280;47991;42.974;12.082;2023-06-14T11:39:04;97233.84;;;17.26;89.12
62038;BME280;47991;42.974;12.082;2023-06-14T11:41:35;97232.61;;;17.36;89.47
62038;BME280;47991;42.974;12.082;2023-06-14T11:44:02;97231.86;;;17.45;89.67
62038;BME280;47991;42.974;12.082;2023-06-14T11:46:29;97228.46;;;17.56;90.06
62038;BME280;47991;42.974;12.082;2023-06-14T11:48:55;97222.50;;;17.68;90.06
62038;BME280;47991;42.974;12.082;2023-06-14T11:51:22;97216.30;;;17.76;89.98
62038;BME280;47991;42.974;12.082;2023-06-14T11:53:48;97212.98;;;17.88;90.18
62038;BME280;47991;42.974;12.082;2023-06-14T11:56:15;97211.16;;;17.97;89.80
62038;BME280;47991;42.974;12.082;2023-06-14T11:58:44;97213.96;;;18.03;89.70
62038;BME280;47991;42.974;12.082;2023-06-14T12:01:16;97210.17;;;18.09;89.47
62038;BME280;47991;42.974;12.082;2023-06-14T12:03:49;97210.25;;;18.16;89.08
62038;BME280;47991;42.974;12.082;2023-06-14T12:06:17;97206.35;;;18.26;89.47
62038;BME280;47991;42.974;12.082;2023-06-14T12:08:51;97198.96;;;18.31;89.58
62038;BME280;47991;42.974;12.082;2023-06-14T12:11:18;97194.94;;;18.41;90.39
62038;BME280;47991;42.974;12.082;2023-06-14T12:13:44;97192.25;;;18.51;90.53
62038;BME280;47991;42.974;12.082;2023-06-14T12:16:11;97190.79;;;18.62;90.15
62038;BME280;47991;42.974;12.082;2023-06-14T12:18:40;97191.20;;;18.68;90.16
62038;BME280;47991;42.974;12.082;2023-06-14T12:21:07;97190.75;;;18.73;89.18
62038;BME280;47991;42.974;12.082;2023-06-14T12:23:47;97189.66;;;18.80;89.70
62038;BME280;47991;42.974;12.082;2023-06-14T12:26:17;97184.54;;;18.85;88.80
62038;BME280;47991;42.974;12.082;2023-06-14T12:28:47;97182.15;;;18.91;89.41
62038;BME280;47991;42.974;12.082;2023-06-14T12:31:15;97178.08;;;18.95;89.31
62038;BME280;47991;42.974;12.082;2023-06-14T12:33:42;97181.17;;;19.00;89.37
62038;BME280;47991;42.974;12.082;2023-06-14T12:36:10;97178.80;;;19.02;89.11
62038;BME280;47991;42.974;12.082;2023-06-14T12:38:37;97177.48;;;19.06;89.58
62038;BME280;47991;42.974;12.082;2023-06-14T12:41:03;97179.23;;;19.10;89.74
62038;BME280;47991;42.974;12.082;2023-06-14T12:43:30;97185.70;;;18.99;89.43
62038;BME280;47991;42.974;12.082;2023-06-14T12:45:56;97185.95;;;19.00;90.71
62038;BME280;47991;42.974;12.082;2023-06-14T12:48:22;97194.23;;;19.02;91.05
62038;BME280;47991;42.974;12.082;2023-06-14T12:50:50;97200.52;;;19.04;91.03
62038;BME280;47991;42.974;12.082;2023-06-14T12:53:16;97200.41;;;19.06;91.04
62038;BME280;47991;42.974;12.082;2023-06-14T12:55:43;97199.66;;;19.04;90.53
62038;BME280;47991;42.974;12.082;2023-06-14T12:58:09;97199.04;;;19.05;90.15
62038;BME280;47991;42.974;12.082;2023-06-14T13:00:38;97196.27;;;19.09;89.76
62038;BME280;47991;42.974;12.082;2023-06-14T13:03:04;97193.42;;;19.18;89.94
62038;BME280;47991;42.974;12.082;2023-06-14T13:05:31;97189.42;;;19.21;90.02
62038;BME280;47991;42.974;12.082;2023-06-14T13:08:00;97192.84;;;19.27;90.90
62038;BME280;47991;42.974;12.082;2023-06-14T13:10:26;97188.91;;;19.36;90.27
62038;BME280;47991;42.974;12.082;2023-06-14T13:12:54;97187.30;;;19.46;90.43
62038;BME280;47991;42.974;12.082;2023-06-14T13:15:33;97187.08;;;19.56;90.39
62038;BME280;47991;42.974;12.082;2023-06-14T13:17:59;97180.73;;;19.60;89.63
62038;BME280;47991;42.974;12.082;2023-06-14T13:20:25;97178.35;;;19.62;91.02
62038;BME280;47991;42.974;12.082;2023-06-14T13:22:52;97178.63;;;19.62;90.57
62038;BME280;47991;42.974;12.082;2023-06-14T13:25:18;97177.23;;;19.56;89.91
62038;BME280;47991;42.974;12.082;2023-06-14T13:27:44;97174.12;;;19.54;90.98
62038;BME280;47991;42.974;12.082;2023-06-14T13:30:11;97174.05;;;19.60;91.39
62038;BME280;47991;42.974;12.082;2023-06-14T13:32:37;97172.27;;;19.65;90.96
62038;BME280;47991;42.974;12.082;2023-06-14T13:35:04;97174.86;;;19.69;90.62